sensor_id;sensor_type;location;lat;lon;timestamp;P1;durP1;ratioP1;P2;durP2;ratioP2
15218;SDS011;15623;53.986;11.676;2022-10-31T04:29:38;65.77;;;40.80;;
15218;SDS011;15623;53.986;11.676;2022-10-31T04:32:06;61.73;;;38.17;;
15218;SDS011;15623;53.986;11.676;2022-10-31T04:34:34;63.83;;;40.00;;
15218;SDS011;15623;53.986;11.676;2022-10-31T04:37:02;71.73;;;40.30;;
15218;SDS011;15623;53.986;11.676;2022-10-31T04:39:30;64.10;;;40.20;;
15218;SDS011;15623;53.986;11.676;2022-10-31T04:41:58;69.97;;;40.20;;
15218;SDS011;15623;53.986;11.676;2022-10-31T04:44:25;65.57;;;40.27;;
15218;SDS011;15623;53.986;11.676;2022-10-31T04:46:57;75.90;;;43.00;;
15218;SDS011;15623;53.986;11.676;2022-10-31T04:49:25;70.97;;;41.00;;
15218;SDS011;15623;53.986;11.676;2022-10-31T04:51:53;76.17;;;43.33;;
15218;SDS011;15623;53.986;11.676;2022-10-31T06:47:51;137.63;;;47.20;;
15218;SDS011;15623;53.986;11.676;2022-10-31T06:50:19;173.40;;;48.47;;
15218;SDS011;15623;53.986;11.676;2022-10-31T06:52:51;180.80;;;47.83;;
15218;SDS011;15623;53.986;11.676;2022-10-31T06:55:19;223.27;;;49.00;;
15218;SDS011;15623;53.986;11.676;2022-10-31T06:57:51;139.82;;;46.80;;
15218;SDS011;15623;53.986;11.676;2022-10-31T07:06:58;189.80;;;50.78;;
15218;SDS011;15623;53.986;11.676;2022-10-31T07:17:12;140.63;;;48.75;;
15218;SDS011;15623;53.986;11.676;2022-10-31T07:19:43;142.35;;;50.38;;
15218;SDS011;15623;53.986;11.676;2022-10-31T07:22:13;271.73;;;50.00;;
15218;SDS011;15623;53.986;11.676;2022-10-31T07:24:44;191.60;;;50.08;;
15218;SDS011;15623;53.986;11.676;2022-10-31T07:27:14;261.58;;;52.42;;
15218;SDS011;15623;53.986;11.676;2022-10-31T07:29:45;293.63;;;53.38;;
15218;SDS011;15623;53.986;11.676;2022-10-31T07:32:18;415.35;;;55.55;;
15218;SDS011;15623;53.986;11.676;2022-10-31T07:34:50;177.88;;;50.30;;
15218;SDS011;15623;53.986;11.676;2022-10-31T07:37:21;290.23;;;54.10;;
15218;SDS011;15623;53.986;11.676;2022-10-31T07:39:51;246.30;;;51.15;;
15218;SDS011;15623;53.986;11.676;2022-10-31T07:42:20;234.80;;;52.05;;
15218;SDS011;15623;53.986;11.676;2022-10-31T07:44:52;200.48;;;51.53;;
15218;SDS011;15623;53.986;11.676;2022-10-31T07:47:19;211.73;;;50.25;;
15218;SDS011;15623;53.986;11.676;2022-10-31T07:49:47;174.57;;;51.38;;
15218;SDS011;15623;53.986;11.676;2022-10-31T07:52:16;191.27;;;48.63;;
15218;SDS011;15623;53.986;11.676;2022-10-31T07:59:56;229.30;;;51.90;;
15218;SDS011;15623;53.986;11.676;2022-10-31T08:02:40;214.80;;;49.85;;
15218;SDS011;15623;53.986;11.676;2022-10-31T08:05:07;150.13;;;50.17;;
15218;SDS011;15623;53.986;11.676;2022-10-31T08:07:36;208.80;;;51.67;;
15218;SDS011;15623;53.986;11.676;2022-10-31T08:10:04;170.73;;;49.50;;
15218;SDS011;15623;53.986;11.676;2022-10-31T08:35:20;98.50;;;44.53;;
15218;SDS011;15623;53.986;11.676;2022-10-31T08:40:24;160.02;;;45.95;;
15218;SDS011;15623;53.986;11.676;2022-10-31T08:43:00;155.90;;;44.65;;
15218;SDS011;15623;53.986;11.676;2022-10-31T08:45:42;88.22;;;41.50;;
15218;SDS011;15623;53.986;11.676;2022-10-31T08:48:12;123.07;;;41.63;;
15218;SDS011;15623;53.986;11.676;2022-10-31T08:50:41;94.00;;;41.83;;
15218;SDS011;15623;53.986;11.676;2022-10-31T08:53:09;79.53;;;37.33;;
15218;SDS011;15623;53.986;11.676;2022-10-31T08:55:42;124.38;;;39.45;;
15218;SDS011;15623;53.986;11.676;2022-10-31T10:46:56;30.55;;;18.08;;
15218;SDS011;15623;53.986;11.676;2022-10-31T11:07:16;32.25;;;19.42;;
15218;SDS011;15623;53.986;11.676;2022-10-31T11:09:44;29.88;;;18.95;;
15218;SDS011;15623;53.986;11.676;2022-10-31T11:12:16;33.42;;;18.42;;
15218;SDS011;15623;53.986;11.676;2022-10-31T11:14:45;32.33;;;20.05;;
15218;SDS011;15623;53.986;11.676;2022-10-31T11:17:17;32.58;;;19.98;;
15218;SDS011;15623;53.986;11.676;2022-10-31T11:19:46;30.98;;;19.27;;
15218;SDS011;15623;53.986;11.676;2022-10-31T11:24:49;35.47;;;20.65;;
15218;SDS011;15623;53.986;11.676;2022-10-31T11:27:19;30.70;;;20.10;;
15218;SDS011;15623;53.986;11.676;2022-10-31T12:50:59;53.50;;;25.50;;
15218;SDS011;15623;53.986;11.676;2022-10-31T12:53:33;51.85;;;25.60;;
15218;SDS011;15623;53.986;11.676;2022-10-31T12:56:07;48.95;;;24.98;;
15218;SDS011;15623;53.986;11.676;2022-10-31T12:58:38;47.92;;;24.80;;
15218;SDS011;15623;53.986;11.676;2022-10-31T13:01:07;53.88;;;25.17;;
15218;SDS011;15623;53.986;11.676;2022-10-31T13:03:37;40.97;;;23.33;;
15218;SDS011;15623;53.986;11.676;2022-10-31T13:11:50;43.75;;;23.10;;
15218;SDS011;15623;53.986;11.676;2022-10-31T13:14:23;47.75;;;23.27;;
15218;SDS011;15623;53.986;11.676;2022-10-31T13:16:52;50.88;;;23.45;;
15218;SDS011;15623;53.986;11.676;2022-10-31T13:19:22;50.88;;;23.75;;
15218;SDS011;15623;53.986;11.676;2022-10-31T13:21:53;51.78;;;23.90;;
15218;SDS011;15623;53.986;11.676;2022-10-31T13:24:22;49.50;;;24.55;;
15218;SDS011;15623;53.986;11.676;2022-10-31T13:26:54;49.13;;;23.45;;
15218;SDS011;15623;53.986;11.676;2022-10-31T13:29:23;45.70;;;24.55;;
15218;SDS011;15623;53.986;11.676;2022-10-31T13:31:52;45.22;;;23.77;;
15218;SDS011;15623;53.986;11.676;2022-10-31T13:34:22;54.80;;;24.88;;
15218;SDS011;15623;53.986;11.676;2022-10-31T13:36:54;49.03;;;24.13;;
15218;SDS011;15623;53.986;11.676;2022-10-31T13:39:27;49.22;;;23.17;;
15218;SDS011;15623;53.986;11.676;2022-10-31T13:41:59;48.03;;;24.67;;
15218;SDS011;15623;53.986;11.676;2022-10-31T13:44:29;48.20;;;22.55;;
15218;SDS011;15623;53.986;11.676;2022-10-31T13:46:57;51.35;;;23.80;;
15218;SDS011;15623;53.986;11.676;2022-10-31T13:49:36;47.45;;;22.92;;
15218;SDS011;15623;53.986;11.676;2022-10-31T13:52:05;49.95;;;23.83;;
15218;SDS011;15623;53.986;11.676;2022-10-31T13:54:33;47.53;;;21.90;;
15218;SDS011;15623;53.986;11.676;2022-10-31T13:57:06;54.60;;;24.50;;
15218;SDS011;15623;53.986;11.676;2022-10-31T13:59:34;48.00;;;22.15;;
15218;SDS011;15623;53.986;11.676;2022-10-31T14:02:12;46.72;;;23.50;;
15218;SDS011;15623;53.986;11.676;2022-10-31T14:04:44;53.22;;;23.77;;
15218;SDS011;15623;53.986;11.676;2022-10-31T14:07:12;57.05;;;24.70;;
15218;SDS011;15623;53.986;11.676;2022-10-31T14:09:48;51.00;;;23.70;;
15218;SDS011;15623;53.986;11.676;2022-10-31T14:12:23;52.17;;;24.33;;
15218;SDS011;15623;53.986;11.676;2022-10-31T14:14:52;53.53;;;23.65;;
15218;SDS011;15623;53.986;11.676;2022-10-31T14:17:21;49.53;;;23.10;;
15218;SDS011;15623;53.986;11.676;2022-10-31T14:22:32;48.80;;;24.02;;
15218;SDS011;15623;53.986;11.676;2022-10-31T14:24:59;49.95;;;22.75;;
15218;SDS011;15623;53.986;11.676;2022-10-31T14:27:43;45.78;;;22.65;;
15218;SDS011;15623;53.986;11.676;2022-10-31T14:30:15;42.92;;;21.67;;
15218;SDS011;15623;53.986;11.676;2022-10-31T14:32:43;48.53;;;22.67;;
15218;SDS011;15623;53.986;11.676;2022-10-31T14:35:13;43.97;;;22.02;;
15218;SDS011;15623;53.986;11.676;2022-10-31T14:37:50;40.63;;;20.85;;
15218;SDS011;15623;53.986;11.676;2022-10-31T14:40:24;42.15;;;21.00;;
15218;SDS011;15623;53.986;11.676;2022-10-31T14:45:40;44.22;;;21.48;;
15218;SDS011;15623;53.986;11.676;2022-10-31T14:48:13;40.92;;;21.52;;
15218;SDS011;15623;53.986;11.676;2022-10-31T14:50:47;39.35;;;20.88;;
15218;SDS011;15623;53.986;11.676;2022-10-31T14:53:24;42.08;;;21.73;;
15218;SDS011;15623;53.986;11.676;2022-10-31T14:55:54;40.60;;;20.38;;
15218;SDS011;15623;53.986;11.676;2022-10-31T14:58:22;49.17;;;22.63;;
15218;SDS011;15623;53.986;11.676;2022-10-31T15:00:53;50.47;;;22.83;;
15218;SDS011;15623;53.986;11.676;2022-10-31T15:03:22;52.38;;;25.50;;
15218;SDS011;15623;53.986;11.676;2022-10-31T15:05:52;51.15;;;25.13;;
15218;SDS011;15623;53.986;11.676;2022-10-31T15:08:27;49.83;;;24.52;;
15218;SDS011;15623;53.986;11.676;2022-10-31T15:11:02;45.50;;;23.38;;
15218;SDS011;15623;53.986;11.676;2022-10-31T15:13:30;51.35;;;23.45;;
15218;SDS011;15623;53.986;11.676;2022-10-31T15:15:59;51.53;;;25.15;;
15218;SDS011;15623;53.986;11.676;2022-10-31T15:18:27;52.22;;;25.88;;
15218;SDS011;15623;53.986;11.676;2022-10-31T15:20:55;62.03;;;27.52;;
15218;SDS011;15623;53.986;11.676;2022-10-31T15:23:23;59.75;;;29.17;;
15218;SDS011;15623;53.986;11.676;2022-10-31T15:25:59;64.45;;;29.42;;
15218;SDS011;15623;53.986;11.676;2022-10-31T15:28:27;64.63;;;28.90;;
15218;SDS011;15623;53.986;11.676;2022-10-31T15:30:56;67.78;;;30.13;;
15218;SDS011;15623;53.986;11.676;2022-10-31T15:33:26;65.07;;;28.97;;
15218;SDS011;15623;53.986;11.676;2022-10-31T15:35:55;65.23;;;27.73;;
15218;SDS011;15623;53.986;11.676;2022-10-31T15:38:24;71.97;;;29.45;;
15218;SDS011;15623;53.986;11.676;2022-10-31T15:40:52;70.68;;;30.27;;
15218;SDS011;15623;53.986;11.676;2022-10-31T15:43:21;76.73;;;30.20;;
15218;SDS011;15623;53.986;11.676;2022-10-31T15:45:49;74.03;;;31.08;;
15218;SDS011;15623;53.986;11.676;2022-10-31T15:48:17;75.05;;;30.77;;
15218;SDS011;15623;53.986;11.676;2022-10-31T15:51:00;79.80;;;31.50;;
15218;SDS011;15623;53.986;11.676;2022-10-31T15:53:32;73.13;;;29.02;;
15218;SDS011;15623;53.986;11.676;2022-10-31T15:56:02;83.60;;;31.05;;
15218;SDS011;15623;53.986;11.676;2022-10-31T15:58:32;69.23;;;30.10;;
15218;SDS011;15623;53.986;11.676;2022-10-31T16:01:00;68.10;;;30.50;;
15218;SDS011;15623;53.986;11.676;2022-10-31T16:03:28;74.60;;;29.90;;
15218;SDS011;15623;53.986;11.676;2022-10-31T16:05:57;79.57;;;30.15;;
15218;SDS011;15623;53.986;11.676;2022-10-31T16:08:32;83.57;;;35.83;;
15218;SDS011;15623;53.986;11.676;2022-10-31T16:11:02;87.53;;;33.53;;
15218;SDS011;15623;53.986;11.676;2022-10-31T16:13:41;79.70;;;31.05;;
15218;SDS011;15623;53.986;11.676;2022-10-31T16:16:11;92.70;;;31.20;;
15218;SDS011;15623;53.986;11.676;2022-10-31T16:18:40;89.33;;;31.50;;
15218;SDS011;15623;53.986;11.676;2022-10-31T16:21:08;110.80;;;30.70;;
15218;SDS011;15623;53.986;11.676;2022-10-31T16:23:59;105.50;;;31.80;;
15218;SDS011;15623;53.986;11.676;2022-10-31T16:26:28;104.93;;;35.00;;
15218;SDS011;15623;53.986;11.676;2022-10-31T16:28:59;133.77;;;33.80;;
15218;SDS011;15623;53.986;11.676;2022-10-31T16:31:36;100.10;;;30.67;;
15218;SDS011;15623;53.986;11.676;2022-10-31T16:39:43;235.33;;;34.53;;
15218;SDS011;15623;53.986;11.676;2022-10-31T16:42:11;210.37;;;35.43;;
15218;SDS011;15623;53.986;11.676;2022-10-31T16:44:38;210.93;;;35.77;;
15218;SDS011;15623;53.986;11.676;2022-10-31T16:47:12;202.67;;;35.03;;
15218;SDS011;15623;53.986;11.676;2022-10-31T16:49:40;160.63;;;32.63;;
15218;SDS011;15623;53.986;11.676;2022-10-31T16:52:09;265.58;;;35.42;;
15218;SDS011;15623;53.986;11.676;2022-10-31T16:54:37;237.97;;;37.93;;
15218;SDS011;15623;53.986;11.676;2022-10-31T16:57:10;255.23;;;44.33;;
15218;SDS011;15623;53.986;11.676;2022-10-31T16:59:40;262.03;;;53.23;;
15218;SDS011;15623;53.986;11.676;2022-10-31T17:02:10;295.55;;;59.28;;
15218;SDS011;15623;53.986;11.676;2022-10-31T17:04:41;321.43;;;46.30;;
15218;SDS011;15623;53.986;11.676;2022-10-31T17:07:10;209.97;;;35.07;;
15218;SDS011;15623;53.986;11.676;2022-10-31T17:09:38;244.17;;;36.10;;
15218;SDS011;15623;53.986;11.676;2022-10-31T17:12:09;241.50;;;35.37;;
15218;SDS011;15623;53.986;11.676;2022-10-31T17:14:44;381.93;;;68.27;;
15218;SDS011;15623;53.986;11.676;2022-10-31T17:17:14;447.20;;;81.00;;
15218;SDS011;15623;53.986;11.676;2022-10-31T17:19:42;256.40;;;53.97;;
15218;SDS011;15623;53.986;11.676;2022-10-31T17:22:10;322.80;;;70.37;;
15218;SDS011;15623;53.986;11.676;2022-10-31T17:27:18;166.67;;;36.53;;
15218;SDS011;15623;53.986;11.676;2022-10-31T17:29:46;115.50;;;34.53;;
15218;SDS011;15623;53.986;11.676;2022-10-31T17:32:13;119.60;;;33.70;;
15218;SDS011;15623;53.986;11.676;2022-10-31T17:34:41;107.30;;;33.72;;
15218;SDS011;15623;53.986;11.676;2022-10-31T17:37:09;85.70;;;31.43;;
15218;SDS011;15623;53.986;11.676;2022-10-31T18:03:40;104.10;;;31.43;;
15218;SDS011;15623;53.986;11.676;2022-10-31T18:11:20;81.75;;;29.63;;
15218;SDS011;15623;53.986;11.676;2022-10-31T18:13:52;87.82;;;30.55;;
15218;SDS011;15623;53.986;11.676;2022-10-31T18:16:21;73.13;;;27.30;;
15218;SDS011;15623;53.986;11.676;2022-10-31T18:18:51;81.50;;;28.00;;
15218;SDS011;15623;53.986;11.676;2022-10-31T18:21:18;70.93;;;26.53;;
15218;SDS011;15623;53.986;11.676;2022-10-31T18:23:47;71.57;;;26.55;;
15218;SDS011;15623;53.986;11.676;2022-10-31T18:26:17;71.45;;;26.75;;
15218;SDS011;15623;53.986;11.676;2022-10-31T18:28:47;72.05;;;26.80;;
15218;SDS011;15623;53.986;11.676;2022-10-31T18:31:16;70.07;;;27.13;;
15218;SDS011;15623;53.986;11.676;2022-10-31T18:33:46;69.97;;;28.83;;
15218;SDS011;15623;53.986;11.676;2022-10-31T18:36:17;72.45;;;28.08;;
15218;SDS011;15623;53.986;11.676;2022-10-31T18:38:44;67.78;;;27.02;;
15218;SDS011;15623;53.986;11.676;2022-10-31T18:41:12;78.47;;;28.23;;
15218;SDS011;15623;53.986;11.676;2022-10-31T18:43:55;85.20;;;30.23;;
15218;SDS011;15623;53.986;11.676;2022-10-31T18:46:26;81.82;;;31.67;;
15218;SDS011;15623;53.986;11.676;2022-10-31T18:49:08;77.20;;;29.60;;
15218;SDS011;15623;53.986;11.676;2022-10-31T19:00:46;75.72;;;30.38;;
15218;SDS011;15623;53.986;11.676;2022-10-31T19:03:27;72.60;;;30.70;;
15218;SDS011;15623;53.986;11.676;2022-10-31T19:06:18;71.95;;;30.20;;
15218;SDS011;15623;53.986;11.676;2022-10-31T19:09:19;73.40;;;28.40;;
15218;SDS011;15623;53.986;11.676;2022-10-31T19:12:01;82.95;;;29.38;;
15218;SDS011;15623;53.986;11.676;2022-10-31T19:14:46;80.77;;;30.07;;
15218;SDS011;15623;53.986;11.676;2022-10-31T20:37:26;373.60;;;42.07;;
15218;SDS011;15623;53.986;11.676;2022-10-31T20:39:54;423.50;;;43.90;;
15218;SDS011;15623;53.986;11.676;2022-10-31T20:42:52;533.17;;;44.40;;
15218;SDS011;15623;53.986;11.676;2022-10-31T20:45:37;259.00;;;39.20;;
15218;SDS011;15623;53.986;11.676;2022-10-31T20:48:04;424.67;;;43.40;;
15218;SDS011;15623;53.986;11.676;2022-10-31T20:50:32;235.37;;;42.20;;
15218;SDS011;15623;53.986;11.676;2022-10-31T20:53:01;169.80;;;39.27;;
15218;SDS011;15623;53.986;11.676;2022-10-31T20:55:30;149.03;;;37.37;;
15218;SDS011;15623;53.986;11.676;2022-10-31T20:58:00;149.35;;;38.95;;
15218;SDS011;15623;53.986;11.676;2022-10-31T21:00:30;163.97;;;38.77;;
15218;SDS011;15623;53.986;11.676;2022-10-31T21:03:14;158.87;;;39.17;;
15218;SDS011;15623;53.986;11.676;2022-10-31T21:05:42;197.25;;;40.00;;
15218;SDS011;15623;53.986;11.676;2022-10-31T21:11:26;182.20;;;39.30;;
15218;SDS011;15623;53.986;11.676;2022-10-31T21:14:08;197.85;;;41.42;;
15218;SDS011;15623;53.986;11.676;2022-10-31T21:16:39;182.97;;;38.20;;
15218;SDS011;15623;53.986;11.676;2022-10-31T21:19:06;272.03;;;42.17;;
15218;SDS011;15623;53.986;11.676;2022-10-31T21:21:34;222.33;;;41.13;;
15218;SDS011;15623;53.986;11.676;2022-10-31T21:24:18;405.40;;;45.17;;
15218;SDS011;15623;53.986;11.676;2022-10-31T21:26:50;352.47;;;42.70;;
15218;SDS011;15623;53.986;11.676;2022-10-31T21:29:19;468.80;;;45.77;;
15218;SDS011;15623;53.986;11.676;2022-10-31T21:31:47;436.10;;;46.73;;
15218;SDS011;15623;53.986;11.676;2022-10-31T21:34:18;340.40;;;42.33;;
15218;SDS011;15623;53.986;11.676;2022-10-31T21:36:46;554.93;;;48.70;;
15218;SDS011;15623;53.986;11.676;2022-10-31T21:39:17;524.65;;;51.60;;
15218;SDS011;15623;53.986;11.676;2022-10-31T21:41:44;532.77;;;50.07;;
15218;SDS011;15623;53.986;11.676;2022-10-31T21:44:14;654.23;;;52.03;;
15218;SDS011;15623;53.986;11.676;2022-10-31T21:46:42;539.57;;;46.90;;
15218;SDS011;15623;53.986;11.676;2022-10-31T21:49:12;568.60;;;51.20;;
15218;SDS011;15623;53.986;11.676;2022-10-31T21:51:41;582.87;;;54.00;;
15218;SDS011;15623;53.986;11.676;2022-10-31T21:54:11;702.33;;;55.83;;
15218;SDS011;15623;53.986;11.676;2022-10-31T21:56:58;496.17;;;50.42;;
15218;SDS011;15623;53.986;11.676;2022-10-31T21:59:29;527.72;;;52.70;;
15218;SDS011;15623;53.986;11.676;2022-10-31T22:01:57;489.17;;;52.27;;
15218;SDS011;15623;53.986;11.676;2022-10-31T22:04:26;406.10;;;49.17;;
15218;SDS011;15623;53.986;11.676;2022-10-31T22:07:17;500.67;;;55.63;;
15218;SDS011;15623;53.986;11.676;2022-10-31T23:07:52;326.07;;;56.07;;
15218;SDS011;15623;53.986;11.676;2022-10-31T23:10:21;363.58;;;58.78;;
15218;SDS011;15623;53.986;11.676;2022-10-31T23:13:02;180.43;;;50.63;;
15218;SDS011;15623;53.986;11.676;2022-10-31T23:15:47;145.50;;;51.70;;
15218;SDS011;15623;53.986;11.676;2022-10-31T23:18:28;160.20;;;53.33;;
15218;SDS011;15623;53.986;11.676;2022-10-31T23:21:02;154.27;;;52.37;;
15218;SDS011;15623;53.986;11.676;2022-10-31T23:29:38;199.93;;;53.07;;
15218;SDS011;15623;53.986;11.676;2022-10-31T23:32:40;237.27;;;52.87;;
15218;SDS011;15623;53.986;11.676;2022-10-31T23:35:09;241.30;;;52.53;;
15218;SDS011;15623;53.986;11.676;2022-10-31T23:37:37;287.73;;;54.60;;
15218;SDS011;15623;53.986;11.676;2022-10-31T23:40:06;402.00;;;58.50;;
15218;SDS011;15623;53.986;11.676;2022-10-31T23:42:34;310.60;;;53.80;;
15218;SDS011;15623;53.986;11.676;2022-10-31T23:45:10;329.53;;;56.87;;
15218;SDS011;15623;53.986;11.676;2022-10-31T23:47:38;487.07;;;61.10;;
15218;SDS011;15623;53.986;11.676;2022-10-31T23:52:35;636.50;;;67.37;;
15218;SDS011;15623;53.986;11.676;2022-10-31T23:55:16;721.90;;;66.60;;
15218;SDS011;15623;53.986;11.676;2022-10-31T23:57:58;445.40;;;59.57;;
